Time;durP1;ratioP1;P1;durP2;ratioP2;P2;SDS_P1;SDS_P2;PMS_P1;PMS_P2;Temp;Humidity;BMP_temperature;BMP_pressure;BME280_temperature;BME280_humidity;BME280_pressure;Samples;Min_cycle;Max_cycle;Signal;HPM_P1;HPM_P2
2024/01/10 00:00:03;;;;;;;156.00;57.90;;;;;;;-13.70;78.10;100588.30;224375;1288;22550;-72
2024/01/10 00:05:05;;;;;;;185.40;69.20;;;;;;;-13.75;78.08;100583.35;224404;1265;23937;-72
2024/01/10 00:10:08;;;;;;;153.60;56.00;;;;;;;-13.80;78.00;100587.39;224446;1288;22517;-72
2024/01/10 00:15:11;;;;;;;171.00;61.10;;;;;;;-13.86;78.02;100583.30;224395;1288;24249;-73
2024/01/10 00:20:13;;;;;;;181.30;69.30;;;;;;;-13.92;77.86;100577.69;224503;1286;25306;-73
2024/01/10 00:25:15;;;;;;;187.50;72.20;;;;;;;-13.94;78.04;100572.77;224416;1284;21978;-73
2024/01/10 00:30:17;;;;;;;174.10;65.90;;;;;;;-13.95;78.12;100563.11;224448;1271;24915;-73
2024/01/10 00:35:19;;;;;;;219.90;81.00;;;;;;;-13.94;78.39;100563.63;224470;1278;22549;-73
2024/01/10 00:40:21;;;;;;;216.00;83.50;;;;;;;-13.92;78.18;100558.39;224477;1285;22523;-73
2024/01/10 00:45:24;;;;;;;186.80;69.50;;;;;;;-13.92;78.24;100555.51;224495;1286;24205;-72
2024/01/10 00:50:26;;;;;;;184.20;70.10;;;;;;;-13.89;78.45;100563.48;224453;1287;22526;-72
2024/01/10 00:55:28;;;;;;;222.80;78.80;;;;;;;-13.89;78.45;100569.75;224394;1287;21797;-72
2024/01/10 01:00:30;;;;;;;213.80;74.00;;;;;;;-13.91;78.15;100571.10;224374;1287;21776;-73
2024/01/10 01:05:32;;;;;;;199.70;68.40;;;;;;;-14.00;77.64;100576.13;224460;1289;22538;-71
2024/01/10 01:10:34;;;;;;;187.40;66.80;;;;;;;-14.11;77.69;100582.17;224395;1288;24756;-72
2024/01/10 01:15:38;;;;;;;150.70;55.70;;;;;;;-14.17;77.60;100582.64;225562;1286;22535;-74
2024/01/10 01:20:40;;;;;;;160.30;62.90;;;;;;;-14.20;77.66;100577.02;224494;1286;22523;-71
2024/01/10 01:25:42;;;;;;;191.70;69.80;;;;;;;-14.20;77.88;100575.50;224398;1284;22614;-72
2024/01/10 01:30:44;;;;;;;190.30;69.40;;;;;;;-14.22;77.87;100573.45;224465;1286;22555;-72
2024/01/10 01:35:46;;;;;;;153.60;58.10;;;;;;;-14.29;77.63;100573.75;224507;1284;25225;-73
2024/01/10 01:40:48;;;;;;;224.30;82.80;;;;;;;-14.40;77.47;100582.67;224451;1285;22568;-72
2024/01/10 01:45:55;;;;;;;183.00;66.60;;;;;;;-14.49;77.25;100586.83;224342;1287;22562;-71
2024/01/10 01:51:02;;;;;;;187.20;69.70;;;;;;;-14.58;77.31;100583.39;224459;1286;25357;-73
2024/01/10 01:56:08;;;;;;;122.80;46.10;;;;;;;-14.62;77.57;100584.88;224475;1287;22556;-71
2024/01/10 02:01:11;;;;;;;166.90;61.00;;;;;;;-14.67;77.36;100581.63;224471;1287;25379;-72
2024/01/10 02:06:13;;;;;;;133.30;49.40;;;;;;;-14.71;77.50;100571.12;224646;1286;21733;-72
2024/01/10 02:11:16;;;;;;;148.00;55.60;;;;;;;-14.74;77.52;100558.92;224480;1287;26054;-72
2024/01/10 02:16:18;;;;;;;138.00;50.30;;;;;;;-14.69;77.94;100550.66;224486;1285;25435;-72
2024/01/10 02:21:21;;;;;;;114.50;43.30;;;;;;;-14.67;77.87;100547.14;224524;1286;22647;-72
2024/01/10 02:26:24;;;;;;;120.20;46.80;;;;;;;-14.62;78.10;100539.23;224968;1287;22533;-72
2024/01/10 02:31:27;;;;;;;131.20;48.60;;;;;;;-14.59;78.07;100532.15;224460;1288;22511;-72
2024/01/10 02:36:29;;;;;;;124.70;48.80;;;;;;;-14.53;78.26;100537.77;224397;1288;22478;-72
2024/01/10 02:41:31;;;;;;;163.30;60.40;;;;;;;-14.47;78.59;100538.82;224481;1287;22569;-72
2024/01/10 02:46:33;;;;;;;154.30;57.00;;;;;;;-14.44;78.35;100539.36;224365;1287;22533;-71
2024/01/10 02:51:35;;;;;;;136.20;51.20;;;;;;;-14.44;78.30;100541.39;224374;1284;25332;-72
2024/01/10 02:56:37;;;;;;;117.00;44.70;;;;;;;-14.47;78.06;100542.88;224439;1286;21765;-71
2024/01/10 03:01:40;;;;;;;108.60;42.30;;;;;;;-14.54;77.53;100536.06;224455;1288;21964;-72
2024/01/10 03:06:45;;;;;;;110.00;44.60;;;;;;;-14.63;77.74;100527.89;224470;1287;21798;-73
2024/01/10 03:11:47;;;;;;;129.80;50.90;;;;;;;-14.62;77.93;100520.46;224456;1286;22702;-72
2024/01/10 03:16:49;;;;;;;121.20;46.80;;;;;;;-14.59;78.13;100519.13;224399;1288;22550;-72
2024/01/10 03:30:38;;;;;;;;;;;;;;;-14.58;78.23;100523.36;219999;1305;544777;-73
2024/01/10 03:35:40;;;;;;;174.50;66.20;;;;;;;-14.66;78.26;100524.31;225008;1284;22513;-72
2024/01/10 03:40:42;;;;;;;173.30;66.40;;;;;;;-14.70;78.18;100519.23;224891;1285;273704;-72
2024/01/10 03:45:44;;;;;;;156.50;60.10;;;;;;;-14.71;78.28;100520.58;225306;1282;21919;-72
2024/01/10 03:50:46;;;;;;;155.00;59.80;;;;;;;-14.66;78.38;100520.25;225313;1283;22530;-72
2024/01/10 03:55:48;;;;;;;153.00;58.80;;;;;;;-14.63;78.45;100513.34;225231;1284;22545;-72
2024/01/10 04:00:50;;;;;;;128.30;53.20;;;;;;;-14.60;78.46;100514.21;225265;1283;22536;-72
2024/01/10 04:05:52;;;;;;;153.70;60.90;;;;;;;-14.65;78.18;100500.48;225205;1284;24406;-73
2024/01/10 04:10:54;;;;;;;144.40;56.60;;;;;;;-14.62;78.40;100495.94;225316;1273;22505;-72
2024/01/10 04:15:57;;;;;;;163.60;61.60;;;;;;;-14.58;78.60;100498.00;225224;1282;22564;-72
2024/01/10 04:20:59;;;;;;;159.90;59.80;;;;;;;-14.52;78.60;100493.62;224781;1285;22504;-72
2024/01/10 04:26:02;;;;;;;132.50;52.30;;;;;;;-14.54;78.44;100496.00;224829;1282;22506;-72
2024/01/10 04:31:05;;;;;;;111.30;48.10;;;;;;;-14.53;78.50;100495.15;224834;1285;25449;-72
2024/01/10 04:36:07;;;;;;;110.80;46.50;;;;;;;-14.55;78.25;100493.95;224722;1284;22611;-72
2024/01/10 04:41:09;;;;;;;135.80;54.80;;;;;;;-14.59;77.99;100498.50;224819;1283;25859;-72
2024/01/10 04:46:11;;;;;;;98.60;41.10;;;;;;;-14.54;78.30;100503.77;224786;1283;24212;-72
2024/01/10 04:51:14;;;;;;;130.20;53.10;;;;;;;-14.50;78.29;100508.86;224792;1283;22521;-72
2024/01/10 04:56:18;;;;;;;140.50;55.10;;;;;;;-14.55;77.98;100506.48;224869;1282;25344;-72
2024/01/10 05:01:20;;;;;;;123.70;49.60;;;;;;;-14.56;77.90;100507.66;224924;1281;22550;-72
2024/01/10 05:06:22;;;;;;;143.90;58.70;;;;;;;-14.55;77.97;100513.58;224722;1285;22519;-73
2024/01/10 05:11:28;;;;;;;141.20;53.20;;;;;;;-14.56;78.09;100509.52;224842;1283;23472;-73
2024/01/10 05:16:31;;;;;;;131.80;51.00;;;;;;;-14.57;77.94;100508.34;224694;1285;22518;-72
2024/01/10 05:21:33;;;;;;;129.30;49.80;;;;;;;-14.62;77.77;100506.59;224625;1279;22578;-71
2024/01/10 05:26:35;;;;;;;134.60;54.20;;;;;;;-14.68;77.79;100502.33;224702;1285;22516;-71
2024/01/10 05:31:37;;;;;;;125.40;48.70;;;;;;;-14.71;77.84;100491.67;224674;1285;22528;-71
2024/01/10 05:36:39;;;;;;;121.80;49.80;;;;;;;-14.70;77.85;100490.16;224714;1285;22512;-71
2024/01/10 05:41:43;;;;;;;122.80;49.20;;;;;;;-14.74;77.65;100480.65;224789;1282;25242;-71
2024/01/10 05:46:47;;;;;;;120.70;50.90;;;;;;;-14.76;77.78;100483.16;224575;1285;21751;-72
2024/01/10 05:51:50;;;;;;;114.90;49.10;;;;;;;-14.77;77.82;100481.46;224637;1282;22527;-71
2024/01/10 05:56:51;;;;;;;127.40;52.10;;;;;;;-14.74;77.92;100485.73;224768;1279;22671;-71
2024/01/10 06:01:53;;;;;;;126.20;50.20;;;;;;;-14.71;78.12;100483.55;224799;1285;22518;-71
2024/01/10 06:06:58;;;;;;;148.70;59.70;;;;;;;-14.67;78.14;100489.64;224827;1279;25239;-71
2024/01/10 06:12:00;;;;;;;126.00;54.40;;;;;;;-14.64;78.09;100496.93;224822;1280;22515;-71
2024/01/10 06:17:03;;;;;;;124.10;53.20;;;;;;;-14.67;77.93;100497.08;224800;1285;25374;-72
2024/01/10 06:22:05;;;;;;;125.70;51.80;;;;;;;-14.73;77.67;100507.37;224813;1285;22532;-72
2024/01/10 06:27:08;;;;;;;128.20;49.10;;;;;;;-14.76;77.56;100509.20;224830;1282;22514;-71
2024/01/10 06:32:14;;;;;;;133.50;55.90;;;;;;;-14.76;77.72;100511.91;224746;1285;22590;-72
2024/01/10 06:37:16;;;;;;;117.00;50.00;;;;;;;-14.77;77.62;100517.31;224775;1285;22556;-72
2024/01/10 06:42:18;;;;;;;116.70;45.40;;;;;;;-14.82;77.54;100519.64;224857;1283;21849;-72
2024/01/10 06:47:21;;;;;;;119.20;47.90;;;;;;;-14.86;77.49;100516.41;224736;1284;24369;-71
2024/01/10 06:52:23;;;;;;;113.30;47.70;;;;;;;-14.89;77.39;100518.24;224766;1280;22539;-73
2024/01/10 06:57:26;;;;;;;124.00;54.20;;;;;;;-14.87;77.53;100519.11;224610;1270;22514;-71
2024/01/10 07:02:29;;;;;;;145.10;61.20;;;;;;;-14.86;77.61;100515.73;224557;1279;22591;-71
2024/01/10 07:07:31;;;;;;;140.10;56.00;;;;;;;-14.89;77.48;100514.52;224519;1276;23628;-72
2024/01/10 07:12:35;;;;;;;97.90;41.50;;;;;;;-14.86;77.48;100511.67;224545;1277;22529;-71
2024/01/10 07:17:39;;;;;;;139.00;58.50;;;;;;;-14.81;77.56;100516.92;224573;1273;22540;-71
2024/01/10 07:22:43;;;;;;;128.40;54.50;;;;;;;-14.78;77.41;100516.79;224380;1276;23289;-72
2024/01/10 07:27:46;;;;;;;127.50;51.20;;;;;;;-14.72;77.51;100515.83;224351;1280;26904;-72
2024/01/10 07:32:48;;;;;;;145.80;55.20;;;;;;;-14.64;77.52;100516.20;224389;1264;22580;-71
2024/01/10 07:37:50;;;;;;;124.00;51.50;;;;;;;-14.51;77.70;100506.15;224737;1280;22469;-71
2024/01/10 07:42:52;;;;;;;169.20;67.60;;;;;;;-14.29;78.12;100496.77;224456;1277;22531;-72
2024/01/10 07:47:55;;;;;;;196.70;78.10;;;;;;;-14.06;78.10;100489.28;224411;1270;22518;-71
2024/01/10 07:52:57;;;;;;;175.60;68.80;;;;;;;-13.82;78.35;100489.70;224337;1264;25350;-72
2024/01/10 07:57:59;;;;;;;219.50;89.70;;;;;;;-13.66;78.12;100479.08;224330;1279;22645;-72
2024/01/10 08:03:03;;;;;;;232.90;95.20;;;;;;;-13.24;78.46;100472.35;224441;1279;23150;-73
2024/01/10 08:08:05;;;;;;;210.60;78.90;;;;;;;-12.82;78.58;100459.27;224280;1278;22505;-73
2024/01/10 08:13:07;;;;;;;181.80;74.40;;;;;;;-12.50;78.45;100470.08;224397;1280;25804;-72
2024/01/10 08:18:09;;;;;;;217.40;85.40;;;;;;;-12.23;78.26;100464.91;224376;1264;22620;-72
2024/01/10 08:23:12;;;;;;;244.00;98.90;;;;;;;-12.03;77.97;100464.66;224407;1279;24288;-73
2024/01/10 08:28:14;;;;;;;244.00;99.50;;;;;;;-11.91;77.66;100466.14;224417;1265;22511;-72
2024/01/10 08:33:17;;;;;;;223.90;92.20;;;;;;;-11.73;77.77;100464.16;224275;1277;22544;-72
2024/01/10 08:38:20;;;;;;;223.60;92.20;;;;;;;-11.59;77.45;100466.79;224113;1280;25461;-72
2024/01/10 08:43:22;;;;;;;232.40;94.90;;;;;;;-11.25;77.54;100460.45;224355;1263;25259;-72
2024/01/10 08:48:24;;;;;;;221.40;93.00;;;;;;;-11.04;76.72;100463.51;224215;1278;22592;-73
2024/01/10 08:53:26;;;;;;;200.90;84.90;;;;;;;-10.46;77.16;100465.86;224248;1276;22638;-73
2024/01/10 08:58:29;;;;;;;215.50;93.00;;;;;;;-10.47;75.36;100455.33;225877;1256;23142;-72
2024/01/10 09:03:31;;;;;;;168.90;65.60;;;;;;;-10.42;75.74;100458.68;225878;1257;22986;-73
2024/01/10 09:08:34;;;;;;;219.50;97.30;;;;;;;-10.36;75.61;100451.62;225979;1252;22577;-77
2024/01/10 09:13:40;;;;;;;220.00;99.40;;;;;;;-10.26;75.93;100465.48;225855;1264;22600;-72
2024/01/10 09:18:42;;;;;;;238.30;105.70;;;;;;;-10.10;76.23;100460.85;225954;1266;24234;-72
2024/01/10 09:23:44;;;;;;;237.10;101.30;;;;;;;-10.02;75.94;100461.26;225991;1267;23221;-73
2024/01/10 09:28:46;;;;;;;248.10;107.50;;;;;;;-9.96;75.66;100459.66;226037;1256;22639;-73
2024/01/10 09:33:49;;;;;;;252.10;108.80;;;;;;;-9.87;75.72;100452.38;225901;1250;22652;-74
2024/01/10 09:38:51;;;;;;;264.70;115.30;;;;;;;-9.78;75.61;100443.40;226117;1266;22640;-74
2024/01/10 09:43:53;;;;;;;262.60;114.30;;;;;;;-9.68;75.55;100435.94;225985;1254;22713;-72
2024/01/10 09:48:55;;;;;;;254.50;111.50;;;;;;;-9.47;75.99;100426.25;225901;1266;25556;-73
2024/01/10 09:54:04;;;;;;;283.00;123.80;;;;;;;-9.09;76.57;100424.80;225814;1257;22596;-71
2024/01/10 09:59:10;;;;;;;272.00;118.10;;;;;;;-8.76;76.63;100417.23;225966;1250;22557;-71
2024/01/10 10:04:15;;;;;;;259.10;113.60;;;;;;;-8.49;76.58;100416.73;225933;1266;22738;-72
2024/01/10 10:09:17;;;;;;;231.30;100.80;;;;;;;-8.25;76.00;100418.64;226001;1264;22719;-72
2024/01/10 10:14:19;;;;;;;241.70;112.50;;;;;;;-8.13;75.49;100413.94;225919;1265;22569;-72
2024/01/10 10:19:24;;;;;;;235.20;103.80;;;;;;;-8.02;75.79;100403.45;225920;1260;23282;-72
2024/01/10 10:24:44;;;;;;;249.80;109.50;;;;;;;-7.78;75.88;100399.71;226014;1266;24422;-72
2024/01/10 10:29:46;;;;;;;259.80;120.00;;;;;;;-7.48;76.19;100404.16;225868;1264;24783;-72
2024/01/10 10:34:49;;;;;;;254.80;114.00;;;;;;;-7.11;76.47;100406.19;226018;1257;22640;-73
2024/01/10 10:39:52;;;;;;;257.00;118.90;;;;;;;-6.77;76.21;100399.17;225955;1260;22578;-71
2024/01/10 10:45:00;;;;;;;242.70;109.20;;;;;;;-6.43;76.36;100388.13;226114;1257;22645;-74
2024/01/10 10:50:05;;;;;;;229.60;105.60;;;;;;;-6.12;76.32;100384.36;225807;1265;22571;-73
2024/01/10 10:55:07;;;;;;;174.30;81.70;;;;;;;-5.78;76.44;100376.63;225776;1266;23152;-73
2024/01/10 11:00:10;;;;;;;141.50;67.50;;;;;;;-5.32;77.03;100367.27;226071;1267;22676;-72
2024/01/10 11:05:13;;;;;;;141.50;67.50;;;;;;;-4.89;77.03;100362.75;225877;1267;22595;-73
2024/01/10 11:10:37;;;;;;;141.80;66.40;;;;;;;-4.57;76.47;100360.61;226061;1265;25491;-71
2024/01/10 11:16:07;;;;;;;150.70;67.30;;;;;;;-4.23;76.37;100352.67;226190;1266;22620;-72
2024/01/10 11:21:27;;;;;;;153.10;72.00;;;;;;;-3.86;76.38;100343.02;226009;1266;22549;-73
2024/01/10 11:26:29;;;;;;;163.40;77.50;;;;;;;-3.62;75.59;100343.11;225851;1262;22589;-73
2024/01/10 11:31:32;;;;;;;159.80;73.40;;;;;;;-3.56;74.86;100338.38;226164;1272;22687;-72
2024/01/10 11:36:34;;;;;;;166.60;79.20;;;;;;;-3.46;74.44;100336.11;225776;1266;22702;-72
2024/01/10 11:41:40;;;;;;;170.60;79.70;;;;;;;-3.32;74.80;100333.30;225924;1260;25080;-71
2024/01/10 11:46:47;;;;;;;167.60;82.80;;;;;;;-3.24;74.34;100332.44;227461;1260;24020;-72
2024/01/10 11:51:53;;;;;;;176.40;89.60;;;;;;;-3.19;74.12;100331.55;225935;1266;22638;-72
2024/01/10 11:56:55;;;;;;;178.50;89.60;;;;;;;-3.13;73.97;100326.64;226036;1257;22772;-72
2024/01/10 12:01:58;;;;;;;172.10;85.90;;;;;;;-3.03;73.96;100321.77;225941;1260;23023;-72
2024/01/10 12:07:06;;;;;;;179.40;84.70;;;;;;;-2.90;73.85;100319.81;226067;1260;23152;-73
2024/01/10 12:12:09;;;;;;;168.70;83.00;;;;;;;-2.70;74.15;100318.25;226150;1263;22636;-74
2024/01/10 12:17:11;;;;;;;163.30;79.60;;;;;;;-2.53;73.94;100313.86;226122;1266;22803;-74
2024/01/10 12:22:13;;;;;;;167.50;82.60;;;;;;;-2.44;73.86;100310.88;226087;1250;22669;-73
2024/01/10 12:27:19;;;;;;;163.10;78.30;;;;;;;-2.34;73.55;100301.83;226127;1266;23310;-73
2024/01/10 12:32:23;;;;;;;157.90;79.00;;;;;;;-2.26;73.35;100299.55;226091;1266;22704;-78
2024/01/10 12:37:27;;;;;;;157.10;78.50;;;;;;;-2.26;72.78;100295.75;226024;1266;22591;-74
2024/01/10 12:42:40;;;;;;;154.90;78.60;;;;;;;-2.14;73.43;100292.95;226169;1269;22976;-73
2024/01/10 12:47:42;;;;;;;159.40;78.10;;;;;;;-1.93;73.50;100293.50;226035;1265;23075;-73
2024/01/10 12:52:45;;;;;;;156.90;75.90;;;;;;;-1.88;72.72;100297.94;226056;1260;22584;-73
2024/01/10 12:57:47;;;;;;;146.30;71.00;;;;;;;-2.01;71.80;100296.52;226118;1266;22579;-72
2024/01/10 13:02:49;;;;;;;145.20;72.80;;;;;;;-2.17;71.60;100295.52;226151;1251;24982;-71
2024/01/10 13:07:51;;;;;;;157.10;77.40;;;;;;;-2.31;71.28;100291.83;226103;1257;22649;-73
2024/01/10 13:12:54;;;;;;;160.70;83.30;;;;;;;-2.46;71.19;100275.11;226319;1266;22550;-72
2024/01/10 13:17:56;;;;;;;165.10;80.00;;;;;;;-2.49;71.85;100269.36;226051;1267;22560;-73
2024/01/10 13:22:58;;;;;;;161.20;81.30;;;;;;;-2.46;71.93;100259.06;226144;1250;22552;-74
2024/01/10 13:28:01;;;;;;;170.70;84.80;;;;;;;-2.41;71.85;100256.44;226085;1265;22889;-75
2024/01/10 13:33:03;;;;;;;164.80;81.40;;;;;;;-2.35;71.96;100257.84;226259;1266;22539;-73
2024/01/10 13:38:06;;;;;;;160.30;76.20;;;;;;;-2.33;71.85;100256.92;226077;1253;22557;-74
2024/01/10 13:43:08;;;;;;;166.80;85.40;;;;;;;-2.39;71.50;100253.23;225886;1272;22564;-74
2024/01/10 13:48:10;;;;;;;180.40;88.20;;;;;;;-2.49;71.11;100245.22;226221;1258;22643;-74
2024/01/10 13:53:12;;;;;;;178.80;88.40;;;;;;;-2.60;71.17;100243.13;226049;1266;22554;-73
2024/01/10 13:58:15;;;;;;;181.00;87.40;;;;;;;-2.66;71.38;100233.92;226210;1266;22546;-72
2024/01/10 14:03:17;;;;;;;180.90;87.70;;;;;;;-2.69;71.45;100237.88;226162;1267;24252;-74
2024/01/10 14:08:19;;;;;;;187.30;87.70;;;;;;;-2.70;71.41;100239.13;226098;1253;22606;-80
2024/01/10 14:13:23;;;;;;;174.70;84.80;;;;;;;-2.75;71.41;100240.18;226000;1267;22735;-74
2024/01/10 14:18:25;;;;;;;177.30;88.20;;;;;;;-2.84;71.47;100238.73;226054;1266;22610;-72
2024/01/10 14:23:27;;;;;;;190.80;89.00;;;;;;;-2.94;71.42;100233.09;226234;1260;22627;-72
2024/01/10 14:28:29;;;;;;;178.00;90.10;;;;;;;-3.02;71.52;100229.86;226123;1260;22705;-73
2024/01/10 14:33:32;;;;;;;193.60;90.60;;;;;;;-3.12;71.64;100230.80;226089;1266;25908;-74
2024/01/10 14:38:34;;;;;;;187.00;88.50;;;;;;;-3.19;71.64;100232.48;226146;1267;22548;-72
2024/01/10 14:43:37;;;;;;;180.90;86.80;;;;;;;-3.26;72.06;100235.54;226110;1264;22708;-73
2024/01/10 14:48:39;;;;;;;181.20;84.80;;;;;;;-3.34;71.94;100241.41;226113;1267;22636;-72
2024/01/10 14:53:41;;;;;;;183.30;89.60;;;;;;;-3.42;72.13;100247.92;225979;1266;22679;-72
2024/01/10 14:58:44;;;;;;;193.40;91.40;;;;;;;-3.51;72.27;100247.28;225981;1267;22663;-72
2024/01/10 15:03:46;;;;;;;195.30;96.40;;;;;;;-3.61;72.22;100245.80;226043;1249;22589;-72
2024/01/10 15:08:48;;;;;;;204.80;96.20;;;;;;;-3.70;72.38;100249.80;226153;1251;24329;-72
2024/01/10 15:13:50;;;;;;;205.00;94.30;;;;;;;-3.81;72.30;100253.67;226269;1272;22636;-72
2024/01/10 15:18:52;;;;;;;222.20;107.40;;;;;;;-3.99;71.97;100255.43;226153;1272;22607;-72
2024/01/10 15:23:55;;;;;;;223.50;107.40;;;;;;;-4.14;72.40;100259.64;226206;1251;22617;-72
2024/01/10 15:28:58;;;;;;;220.70;103.80;;;;;;;-4.26;72.72;100258.52;226122;1272;22604;-71
2024/01/10 15:34:02;;;;;;;225.50;103.00;;;;;;;-4.39;72.60;100248.87;226248;1270;26697;-72
2024/01/10 15:39:04;;;;;;;228.20;103.70;;;;;;;-4.53;72.46;100245.45;226232;1254;22622;-72
2024/01/10 15:44:09;;;;;;;212.20;99.20;;;;;;;-4.65;72.70;100243.16;226073;1272;160232;-71
2024/01/10 15:49:12;;;;;;;216.10;101.80;;;;;;;-4.77;72.67;100238.30;226238;1272;22706;-71
2024/01/10 15:54:15;;;;;;;213.10;97.80;;;;;;;-4.94;72.90;100231.49;226233;1273;22628;-72
2024/01/10 15:59:17;;;;;;;221.90;103.90;;;;;;;-5.03;73.15;100231.82;226327;1273;22568;-71
2024/01/10 16:04:19;;;;;;;241.20;111.40;;;;;;;-5.07;73.48;100231.31;226257;1273;23212;-72
2024/01/10 16:09:21;;;;;;;235.50;106.30;;;;;;;-5.14;73.32;100233.09;226303;1272;22601;-71
2024/01/10 16:14:24;;;;;;;248.50;113.00;;;;;;;-5.22;73.48;100230.27;226282;1272;22720;-72
2024/01/10 16:19:27;;;;;;;237.70;111.00;;;;;;;-5.30;73.48;100220.74;226242;1270;22682;-72
2024/01/10 16:24:29;;;;;;;255.60;118.40;;;;;;;-5.38;73.59;100216.08;226347;1266;22621;-72
2024/01/10 16:29:31;;;;;;;290.40;127.30;;;;;;;-5.44;73.96;100219.02;226334;1272;22705;-72
2024/01/10 16:34:33;;;;;;;279.80;128.30;;;;;;;-5.51;73.95;100225.41;226295;1272;22624;-71
2024/01/10 16:39:35;;;;;;;246.30;116.30;;;;;;;-5.57;74.18;100224.96;226081;1251;22583;-72
2024/01/10 16:44:39;;;;;;;263.80;118.90;;;;;;;-5.63;74.55;100220.18;226213;1269;22682;-72
2024/01/10 16:49:41;;;;;;;257.10;116.90;;;;;;;-5.72;74.32;100217.89;226223;1273;25648;-71
2024/01/10 16:54:43;;;;;;;252.80;112.30;;;;;;;-5.89;73.98;100219.50;226218;1270;22612;-71
2024/01/10 16:59:45;;;;;;;249.70;115.20;;;;;;;-6.06;73.97;100215.41;226284;1272;22553;-71
2024/01/10 17:04:47;;;;;;;260.30;117.40;;;;;;;-6.14;74.17;100214.67;226261;1272;22672;-73
2024/01/10 17:09:51;;;;;;;279.40;125.90;;;;;;;-6.22;74.25;100212.50;226289;1271;22748;-70
2024/01/10 17:14:53;;;;;;;255.80;117.10;;;;;;;-6.27;74.46;100213.20;226306;1271;23193;-70
2024/01/10 17:19:55;;;;;;;313.40;129.50;;;;;;;-6.33;74.50;100216.13;226255;1272;25584;-72
2024/01/10 17:24:57;;;;;;;314.00;134.10;;;;;;;-6.38;74.83;100216.95;226175;1269;22651;-71
2024/01/10 17:29:59;;;;;;;307.40;132.10;;;;;;;-6.41;75.07;100218.44;226241;1270;22585;-72
2024/01/10 17:35:02;;;;;;;310.90;139.40;;;;;;;-6.48;74.91;100225.83;226278;1273;22660;-72
2024/01/10 17:40:05;;;;;;;287.50;125.00;;;;;;;-6.51;75.24;100225.05;226256;1258;22713;-71
2024/01/10 17:45:07;;;;;;;267.10;116.10;;;;;;;-6.52;75.58;100224.38;226326;1269;22647;-72
2024/01/10 17:50:10;;;;;;;272.80;119.60;;;;;;;-6.52;75.55;100220.80;226111;1273;22759;-72
2024/01/10 17:55:12;;;;;;;296.20;130.00;;;;;;;-6.58;75.44;100216.73;226201;1272;22637;-72
2024/01/10 18:00:15;;;;;;;310.20;131.50;;;;;;;-6.64;75.53;100214.15;226287;1272;22647;-71
2024/01/10 18:05:17;;;;;;;343.90;150.30;;;;;;;-6.74;75.36;100208.45;226181;1274;24408;-71
2024/01/10 18:10:20;;;;;;;346.10;148.30;;;;;;;-6.86;75.41;100205.89;226288;1269;23493;-71
2024/01/10 18:15:22;;;;;;;348.20;149.50;;;;;;;-6.97;75.38;100208.23;226383;1260;22774;-71
2024/01/10 18:20:24;;;;;;;344.80;149.40;;;;;;;-7.05;75.56;100203.16;226235;1270;22604;-71
2024/01/10 18:25:26;;;;;;;355.80;146.90;;;;;;;-7.09;75.83;100201.55;226294;1272;25022;-71
2024/01/10 18:30:28;;;;;;;399.40;170.30;;;;;;;-7.20;75.73;100195.89;226242;1272;22793;-71
2024/01/10 18:35:30;;;;;;;372.80;165.10;;;;;;;-7.35;75.58;100187.73;226171;1273;22652;-71
2024/01/10 18:40:33;;;;;;;369.40;163.60;;;;;;;-7.46;75.83;100182.23;226242;1273;22628;-72
2024/01/10 18:45:35;;;;;;;373.60;162.70;;;;;;;-7.46;76.16;100177.09;226265;1272;22612;-71
2024/01/10 18:50:38;;;;;;;408.40;177.20;;;;;;;-7.42;76.69;100170.48;226219;1270;22831;-71
2024/01/10 18:55:41;;;;;;;461.40;213.90;;;;;;;-7.46;76.67;100161.87;226317;1272;22569;-70
2024/01/10 19:00:43;;;;;;;449.50;204.30;;;;;;;-7.54;76.56;100158.81;226300;1272;22590;-71
2024/01/10 19:05:46;;;;;;;446.90;200.80;;;;;;;-7.52;77.40;100151.58;226261;1267;22692;-71
2024/01/10 19:10:50;;;;;;;421.10;192.80;;;;;;;-7.47;77.62;100154.88;226239;1273;25663;-71
2024/01/10 19:15:53;;;;;;;418.50;182.70;;;;;;;-7.44;77.74;100154.82;226276;1272;22612;-72
2024/01/10 19:20:55;;;;;;;400.60;172.10;;;;;;;-7.47;77.51;100155.58;226301;1251;22952;-70
2024/01/10 19:25:58;;;;;;;390.90;167.90;;;;;;;-7.47;77.67;100156.25;226282;1273;22702;-71
2024/01/10 19:31:02;;;;;;;375.30;166.60;;;;;;;-7.50;77.39;100155.64;226158;1251;23453;-70
2024/01/10 19:36:04;;;;;;;408.80;174.40;;;;;;;-7.56;77.58;100148.42;226342;1260;22662;-72
2024/01/10 19:41:06;;;;;;;376.60;161.20;;;;;;;-7.61;77.55;100145.33;226312;1272;24184;-72
2024/01/10 19:46:09;;;;;;;375.40;160.90;;;;;;;-7.57;77.93;100143.86;226141;1273;22571;-71
2024/01/10 19:51:13;;;;;;;377.00;161.70;;;;;;;-7.54;78.13;100142.55;226263;1273;24521;-71
2024/01/10 19:56:19;;;;;;;376.50;159.20;;;;;;;-7.56;77.76;100139.89;226144;1259;22656;-71
2024/01/10 20:01:21;;;;;;;380.20;155.70;;;;;;;-7.69;77.50;100145.70;226242;1273;24454;-69
2024/01/10 20:06:23;;;;;;;356.90;154.00;;;;;;;-7.73;77.62;100156.09;226253;1273;22651;-71
2024/01/10 20:11:25;;;;;;;369.50;157.50;;;;;;;-7.71;77.75;100157.91;226255;1272;24248;-71
2024/01/10 20:16:29;;;;;;;359.00;148.50;;;;;;;-7.74;77.74;100159.02;226227;1271;22701;-71
2024/01/10 20:21:32;;;;;;;347.40;146.60;;;;;;;-7.73;78.05;100164.65;226221;1272;23072;-71
2024/01/10 20:26:35;;;;;;;364.50;154.30;;;;;;;-7.71;78.03;100158.25;226350;1252;22620;-71
2024/01/10 20:31:37;;;;;;;351.20;153.90;;;;;;;-7.74;78.07;100148.09;226171;1251;22776;-71
2024/01/10 20:36:39;;;;;;;331.90;142.00;;;;;;;-7.84;77.70;100147.97;226267;1272;22695;-71
2024/01/10 20:41:43;;;;;;;333.90;136.40;;;;;;;-7.87;77.76;100153.20;226312;1272;22665;-70
2024/01/10 20:46:47;;;;;;;324.20;138.00;;;;;;;-7.91;77.61;100150.90;226246;1273;22638;-70
2024/01/10 20:51:49;;;;;;;317.00;135.60;;;;;;;-7.96;77.59;100148.80;226273;1272;22788;-72
2024/01/10 20:56:51;;;;;;;343.80;141.60;;;;;;;-8.05;77.37;100146.84;226331;1267;22876;-70
2024/01/10 21:01:53;;;;;;;349.40;145.00;;;;;;;-8.11;77.45;100150.04;226289;1260;22886;-71
2024/01/10 21:06:58;;;;;;;327.50;129.40;;;;;;;-8.15;77.70;100152.70;226196;1273;22644;-72
2024/01/10 21:12:14;;;;;;;380.40;151.90;;;;;;;-8.22;77.44;100152.36;226327;1272;24039;-70
2024/01/10 21:17:16;;;;;;;359.00;145.70;;;;;;;-8.30;77.43;100152.71;226314;1272;23764;-71
2024/01/10 21:22:19;;;;;;;374.40;150.90;;;;;;;-8.37;77.49;100153.45;226230;1258;22684;-70
2024/01/10 21:27:21;;;;;;;378.40;159.70;;;;;;;-8.41;77.51;100162.59;226300;1257;22600;-70
2024/01/10 21:32:23;;;;;;;384.80;153.80;;;;;;;-8.42;77.54;100167.41;226331;1270;23225;-70
2024/01/10 21:37:26;;;;;;;383.10;154.40;;;;;;;-8.59;77.25;100158.23;226342;1270;22639;-70
2024/01/10 21:42:28;;;;;;;405.90;167.10;;;;;;;-8.68;77.46;100156.02;226136;1273;22739;-71
2024/01/10 21:47:32;;;;;;;398.50;166.70;;;;;;;-8.70;77.94;100156.92;226267;1272;22570;-70
2024/01/10 21:52:35;;;;;;;387.10;157.40;;;;;;;-8.65;78.37;100160.76;226252;1272;22724;-71
2024/01/10 21:57:38;;;;;;;379.30;158.80;;;;;;;-8.66;78.32;100159.75;226375;1272;21817;-69
2024/01/10 22:02:40;;;;;;;407.20;167.20;;;;;;;-8.71;78.13;100152.84;226248;1274;21754;-69
2024/01/10 22:07:54;;;;;;;405.70;166.30;;;;;;;-8.78;78.20;100157.11;226358;1273;22564;-71
2024/01/10 22:12:56;;;;;;;353.50;145.10;;;;;;;-8.81;78.18;100147.63;226133;1273;22669;-71
2024/01/10 22:17:58;;;;;;;303.80;118.10;;;;;;;-8.84;78.37;100136.41;226296;1273;22596;-71
2024/01/10 22:23:01;;;;;;;302.50;122.60;;;;;;;-8.86;78.40;100127.58;226285;1273;22704;-69